This is the latest recevied weather packets stored in our database for station/object OK1KKY-18. If no packets are shown the sender has not sent any weather packets the latest 10 day(s).
| Time | Temp. | Humidity | Pressure | Rain* | Wind** | Luminosity | Snow |
|---|---|---|---|---|---|---|---|
| 1777739753 | 17.78° C | 35% | 1020.8 hPa | - | - | - | - |
| 1777739153 | 18.33° C | 32% | 1020.8 hPa | - | - | - | - |
| 1777738553 | 18.89° C | 31% | 1020.9 hPa | - | - | - | - |
| 1777737953 | 20° C | 27% | 1021 hPa | - | - | - | - |
| 1777737353 | 21.11° C | 23% | 1021.1 hPa | - | - | - | - |
| 1777736752 | 22.22° C | 22% | 1021.2 hPa | - | - | - | - |
| 1777736154 | 22.78° C | 21% | 1021.3 hPa | - | - | - | - |
| 1777735553 | 24.44° C | 19% | 1021.2 hPa | - | - | - | - |
| 1777734959 | 23.89° C | 20% | 1021.4 hPa | - | - | - | - |
| 1777721302 | 21.11° C | 23% | 1024.1 hPa | - | - | - | - |
| 1777720702 | 20.56° C | 27% | 1024.2 hPa | - | - | - | - |
| 1777720102 | 20.56° C | 27% | 1024.3 hPa | - | - | - | - |
| 1777719502 | 20.56° C | 25% | 1024.5 hPa | - | - | - | - |
| 1777718902 | 20° C | 24% | 1024.5 hPa | - | - | - | - |
| 1777718303 | 20.56° C | 23% | 1024.7 hPa | - | - | - | - |
| 1777717703 | 20° C | 25% | 1024.7 hPa | - | - | - | - |
| 1777717103 | 19.44° C | 26% | 1024.8 hPa | - | - | - | - |
| 1777716506 | 20° C | 26% | 1024.9 hPa | - | - | - | - |
| 1777715903 | 19.44° C | 26% | 1025 hPa | - | - | - | - |
| 1777715303 | 19.44° C | 26% | 1025 hPa | - | - | - | - |
| 1777714703 | 19.44° C | 28% | 1025.2 hPa | - | - | - | - |
| 1777714103 | 19.44° C | 28% | 1025.2 hPa | - | - | - | - |
| 1777713509 | 18.89° C | 28% | 1025.2 hPa | - | - | - | - |
| 1777712902 | 18.33° C | 28% | 1025.4 hPa | - | - | - | - |
| 1777712302 | 18.89° C | 27% | 1025.4 hPa | - | - | - | - |
* Rain since midnight (hover to see other rain measurements)
** Current wind speed in m/s (hover to see current wind gust speed)